createdAt,value
2022-09-24T00:01:16.031Z,11.07
2022-09-24T00:04:08.924Z,10.80
2022-09-24T00:06:58.242Z,11.50
2022-09-24T00:09:48.310Z,11.60
2022-09-24T00:12:37.595Z,11.30
2022-09-24T00:15:28.279Z,11.23
2022-09-24T00:18:21.918Z,11.37
2022-09-24T00:21:16.982Z,10.93
2022-09-24T00:24:10.272Z,11.10
2022-09-24T00:26:58.926Z,11.67
2022-09-24T00:29:48.384Z,10.60
2022-09-24T00:32:39.055Z,11.30
2022-09-24T00:35:28.365Z,11.17
2022-09-24T00:38:17.641Z,11.00
2022-09-24T00:41:07.291Z,11.00
2022-09-24T00:43:56.831Z,11.20
2022-09-24T00:46:46.614Z,11.40
2022-09-24T00:49:37.370Z,10.77
2022-09-24T00:52:26.794Z,10.80
2022-09-24T00:55:16.704Z,11.40
2022-09-24T00:58:08.885Z,11.40
2022-09-24T01:01:03.142Z,11.73
2022-09-24T01:03:55.845Z,10.93
2022-09-24T01:06:46.738Z,11.13
2022-09-24T01:09:36.523Z,11.40
2022-09-24T01:12:36.863Z,11.60
2022-09-24T01:15:30.909Z,11.70
2022-09-24T01:18:30.460Z,11.40
2022-09-24T01:21:29.922Z,11.07
2022-09-24T01:24:50.470Z,11.20
2022-09-24T01:28:04.882Z,10.87
2022-09-24T01:31:00.707Z,11.30
2022-09-24T01:33:53.415Z,11.47
2022-09-24T01:36:44.257Z,11.40
2022-09-24T01:39:36.885Z,11.50
2022-09-24T01:42:28.838Z,11.37
2022-09-24T01:45:19.841Z,11.67
2022-09-24T01:48:11.023Z,11.37
2022-09-24T01:51:05.301Z,11.67
2022-09-24T01:54:01.631Z,11.40
2022-09-24T01:56:55.286Z,11.47
2022-09-24T01:59:49.880Z,11.13
2022-09-24T02:02:46.409Z,11.30
2022-09-24T02:05:43.224Z,11.50
2022-09-24T02:08:39.025Z,11.60
2022-09-24T02:11:28.865Z,12.27
2022-09-24T02:14:18.452Z,11.57
2022-09-24T02:17:08.731Z,11.10
2022-09-24T02:20:00.942Z,11.23
2022-09-24T02:22:52.396Z,11.70
2022-09-24T02:25:48.972Z,11.10
2022-09-24T02:28:38.635Z,11.10
2022-09-24T02:31:32.076Z,11.57
2022-09-24T02:34:34.929Z,12.07
2022-09-24T02:37:26.020Z,11.17
2022-09-24T02:40:17.034Z,11.27
2022-09-24T02:43:06.384Z,11.67
2022-09-24T02:45:55.661Z,11.60
2022-09-24T02:48:45.037Z,11.60
2022-09-24T02:51:34.346Z,12.33
2022-09-24T02:54:24.033Z,11.50
2022-09-24T02:57:14.758Z,11.17
2022-09-24T03:00:06.010Z,11.20
2022-09-24T03:02:55.453Z,11.57
2022-09-24T03:05:45.976Z,10.53
2022-09-24T03:08:35.319Z,11.00
2022-09-24T03:11:25.466Z,11.23
2022-09-24T03:14:16.204Z,12.07
2022-09-24T03:17:05.517Z,10.90
2022-09-24T03:19:55.024Z,11.13
2022-09-24T03:22:45.137Z,11.40
2022-09-24T03:25:34.465Z,10.90
2022-09-24T03:28:23.960Z,11.27
2022-09-24T03:31:14.040Z,11.43
2022-09-24T03:34:03.425Z,11.47
2022-09-24T03:36:52.723Z,11.80
2022-09-24T03:39:42.056Z,11.50
2022-09-24T03:42:31.407Z,11.63
2022-09-24T03:45:20.701Z,11.50
2022-09-24T03:48:11.433Z,11.40
2022-09-24T03:51:06.323Z,11.60
2022-09-24T03:53:55.630Z,11.20
2022-09-24T03:56:44.998Z,11.47
2022-09-24T03:59:34.590Z,13.67
2022-09-24T04:02:24.015Z,10.67
2022-09-24T04:05:14.881Z,15.63
2022-09-24T04:08:05.170Z,17.77
2022-09-24T04:10:55.386Z,13.10
2022-09-24T04:13:45.018Z,12.37
2022-09-24T04:16:34.378Z,12.40
2022-09-24T04:19:23.727Z,11.60
2022-09-24T04:22:14.458Z,12.13
2022-09-24T04:25:04.370Z,11.73
2022-09-24T04:27:56.300Z,11.37
2022-09-24T04:30:45.678Z,11.10
2022-09-24T04:33:34.989Z,11.83
2022-09-24T04:36:24.265Z,11.57
2022-09-24T04:39:15.640Z,11.90
2022-09-24T04:42:05.221Z,11.87
2022-09-24T04:44:56.276Z,11.30
2022-09-24T04:47:45.811Z,12.20
2022-09-24T04:50:35.131Z,11.00
2022-09-24T04:53:24.488Z,11.20
2022-09-24T04:56:15.368Z,11.53
2022-09-24T04:59:05.533Z,12.10
2022-09-24T05:01:55.194Z,12.03
2022-09-24T05:04:44.781Z,11.83
2022-09-24T05:07:34.112Z,11.70
2022-09-24T05:10:23.934Z,11.73
2022-09-24T05:13:14.609Z,11.70
2022-09-24T05:16:04.621Z,11.70
2022-09-24T05:18:55.587Z,11.67
2022-09-24T05:21:45.142Z,11.27
2022-09-24T05:24:34.497Z,11.30
2022-09-24T05:27:24.311Z,11.10
2022-09-24T05:30:16.549Z,11.50
2022-09-24T05:33:05.871Z,11.50
2022-09-24T05:35:55.901Z,10.87
2022-09-24T05:38:45.298Z,11.70
2022-09-24T05:41:34.614Z,11.20
2022-09-24T05:44:24.245Z,11.80
2022-09-24T05:47:14.939Z,12.03
2022-09-24T05:50:04.479Z,11.37
2022-09-24T05:52:53.816Z,11.93
2022-09-24T05:55:44.638Z,11.87
2022-09-24T05:58:33.974Z,12.27
2022-09-24T06:01:24.795Z,11.30
2022-09-24T06:04:16.142Z,11.50
2022-09-24T06:07:05.439Z,11.43
2022-09-24T06:09:55.384Z,11.50
2022-09-24T06:12:45.126Z,10.90
2022-09-24T06:15:35.078Z,11.60
2022-09-24T06:18:24.586Z,11.13
2022-09-24T06:21:17.891Z,11.20
2022-09-24T06:24:07.462Z,10.90
2022-09-24T06:26:56.797Z,11.33
2022-09-24T06:29:46.084Z,11.30
2022-09-24T06:32:35.471Z,11.47
2022-09-24T06:35:25.311Z,11.10
2022-09-24T06:38:18.352Z,11.50
2022-09-24T06:41:08.284Z,11.20
2022-09-24T06:43:57.902Z,10.50
2022-09-24T06:46:47.319Z,11.20
2022-09-24T06:49:36.741Z,10.60
2022-09-24T06:52:26.011Z,10.70
2022-09-24T06:55:17.570Z,10.80
2022-09-24T06:58:08.944Z,10.57
2022-09-24T07:01:01.716Z,10.53
2022-09-24T07:03:51.127Z,11.00
2022-09-24T07:06:54.294Z,10.77
2022-09-24T07:09:43.699Z,11.13
2022-09-24T07:12:36.326Z,11.37
2022-09-24T07:15:25.817Z,10.70
2022-09-24T07:18:15.386Z,11.07
2022-09-24T07:21:04.892Z,11.10
2022-09-24T07:23:58.459Z,10.70
2022-09-24T07:26:48.113Z,10.80
2022-09-24T07:29:39.331Z,11.10
2022-09-24T07:32:30.050Z,11.30
2022-09-24T07:35:21.081Z,10.50
2022-09-24T07:38:13.158Z,10.60
2022-09-24T07:41:03.857Z,11.00
2022-09-24T07:43:53.229Z,10.70
2022-09-24T07:46:44.074Z,10.90
2022-09-24T07:49:33.550Z,10.20
2022-09-24T07:52:22.879Z,10.30
2022-09-24T07:55:12.226Z,10.60
2022-09-24T07:58:01.541Z,10.20
2022-09-24T08:00:50.897Z,11.07
2022-09-24T08:03:41.735Z,10.27
2022-09-24T08:06:37.408Z,10.13
2022-09-24T08:09:28.422Z,10.23
2022-09-24T08:12:17.726Z,10.17
2022-09-24T08:15:08.444Z,9.90
2022-09-24T08:18:03.322Z,11.13
2022-09-24T08:20:54.076Z,18.87
2022-09-24T08:23:44.256Z,13.87
2022-09-24T08:26:33.563Z,12.40
2022-09-24T08:29:22.876Z,10.90
2022-09-24T08:32:12.646Z,14.53
2022-09-24T08:35:02.023Z,10.30
2022-09-24T08:37:55.413Z,9.80
2022-09-24T08:40:50.958Z,9.20
2022-09-24T08:43:50.797Z,9.43
2022-09-24T08:47:13.242Z,9.47
2022-09-24T08:50:15.424Z,8.63
2022-09-24T08:53:14.707Z,9.10
2022-09-24T08:56:05.935Z,9.47
2022-09-24T08:59:01.433Z,8.53
2022-09-24T09:02:00.199Z,8.73
2022-09-24T09:05:02.513Z,8.80
2022-09-24T09:08:02.603Z,9.00
2022-09-24T09:10:59.831Z,8.60
2022-09-24T09:13:57.648Z,8.63
2022-09-24T09:16:53.856Z,8.95
2022-09-24T09:19:45.138Z,8.73
2022-09-24T09:22:42.314Z,8.35
2022-09-24T09:25:37.138Z,8.70
2022-09-24T09:28:29.331Z,8.40
2022-09-24T09:31:32.991Z,8.88
2022-09-24T09:34:42.208Z,8.73
2022-09-24T09:37:41.280Z,8.38
2022-09-24T09:40:37.222Z,10.38
2022-09-24T09:43:28.835Z,24.63
2022-09-24T09:46:26.323Z,20.83
2022-09-24T09:49:16.115Z,14.57
2022-09-24T09:52:15.291Z,12.02
2022-09-24T09:55:05.289Z,10.35
2022-09-24T09:58:12.090Z,9.60
2022-09-24T10:01:10.453Z,9.00
2022-09-24T10:04:03.151Z,8.65
2022-09-24T10:06:52.535Z,8.30
2022-09-24T10:09:44.520Z,8.60
2022-09-24T10:12:33.867Z,7.65
2022-09-24T10:15:25.736Z,8.45
2022-09-24T10:18:17.611Z,7.80
2022-09-24T10:21:12.074Z,8.00
2022-09-24T10:24:04.060Z,7.65
2022-09-24T10:26:54.558Z,8.23
2022-09-24T10:30:01.934Z,8.32
2022-09-24T10:32:59.441Z,8.15
2022-09-24T10:35:50.325Z,8.40
2022-09-24T10:38:39.846Z,8.83
2022-09-24T10:41:31.813Z,8.67
2022-09-24T10:44:23.198Z,8.70
2022-09-24T10:47:26.608Z,8.50
2022-09-24T10:50:32.110Z,8.37
2022-09-24T10:53:38.801Z,9.03
2022-09-24T10:56:36.110Z,8.57
2022-09-24T10:59:53.875Z,10.20
2022-09-24T11:03:29.092Z,8.93
2022-09-24T11:06:31.751Z,8.63
2022-09-24T11:09:34.276Z,9.00
2022-09-24T11:12:33.617Z,9.97
2022-09-24T11:15:46.973Z,9.10
2022-09-24T11:18:49.817Z,9.20
2022-09-24T11:22:00.537Z,9.17
2022-09-24T11:25:21.700Z,16.90
2022-09-24T11:28:37.053Z,11.00
2022-09-24T11:31:36.437Z,11.00
2022-09-24T11:34:47.665Z,9.90
2022-09-24T11:37:52.145Z,9.80
2022-09-24T11:41:06.738Z,9.57
2022-09-24T11:44:31.569Z,9.37
2022-09-24T11:47:40.750Z,10.83
2022-09-24T11:50:47.892Z,9.70
2022-09-24T11:53:43.181Z,10.50
2022-09-24T11:56:39.420Z,9.70
2022-09-24T11:59:39.632Z,9.43
2022-09-24T12:02:35.597Z,10.63
2022-09-24T12:05:31.790Z,9.50
2022-09-24T12:08:29.207Z,9.90
2022-09-24T12:11:28.228Z,9.70
2022-09-24T12:14:25.189Z,9.90
2022-09-24T12:17:24.063Z,9.70
2022-09-24T12:20:22.069Z,9.90
2022-09-24T12:23:14.651Z,10.07
2022-09-24T12:26:06.926Z,9.73
2022-09-24T12:29:20.619Z,10.10
2022-09-24T12:32:38.156Z,9.80
2022-09-24T12:35:45.190Z,10.00
2022-09-24T12:38:40.800Z,10.43
2022-09-24T12:41:33.055Z,10.70
2022-09-24T12:44:31.992Z,10.07
2022-09-24T12:47:26.479Z,10.03
2022-09-24T12:50:23.294Z,9.60
2022-09-24T12:53:25.382Z,10.03
2022-09-24T12:56:25.191Z,9.90
2022-09-24T12:59:27.184Z,10.00
2022-09-24T13:02:20.290Z,10.43
2022-09-24T13:05:29.874Z,10.20
2022-09-24T13:08:27.842Z,9.67
2022-09-24T13:11:30.773Z,10.20
2022-09-24T13:14:23.317Z,10.10
2022-09-24T13:17:16.794Z,9.93
2022-09-24T13:20:09.377Z,10.23
2022-09-24T13:23:12.267Z,10.07
2022-09-24T13:26:06.726Z,9.97
2022-09-24T13:28:58.762Z,10.33
2022-09-24T13:31:52.346Z,9.77
2022-09-24T13:34:45.612Z,10.27
2022-09-24T13:37:40.269Z,10.07
2022-09-24T13:40:37.744Z,10.67
2022-09-24T13:43:40.556Z,10.73
2022-09-24T13:46:30.901Z,9.80
2022-09-24T13:49:23.422Z,10.70
2022-09-24T13:52:22.144Z,10.50
2022-09-24T13:55:19.898Z,10.47
2022-09-24T13:58:28.638Z,10.20
2022-09-24T14:01:21.390Z,11.13
2022-09-24T14:04:19.041Z,10.30
2022-09-24T14:07:09.522Z,10.40
2022-09-24T14:10:06.658Z,10.37
2022-09-24T14:13:05.776Z,10.70
2022-09-24T14:15:59.242Z,10.30
2022-09-24T14:18:49.654Z,10.40
2022-09-24T14:21:43.105Z,10.43
2022-09-24T14:24:36.167Z,10.30
2022-09-24T14:27:26.747Z,10.30
2022-09-24T14:30:22.370Z,10.17
2022-09-24T14:33:19.350Z,10.30
2022-09-24T14:36:14.200Z,10.20
2022-09-24T14:39:06.590Z,10.30
2022-09-24T14:41:59.191Z,10.10
2022-09-24T14:44:48.869Z,9.93
2022-09-24T14:47:39.507Z,10.27
2022-09-24T14:50:39.118Z,10.17
2022-09-24T14:53:33.067Z,10.00
2022-09-24T14:56:29.084Z,10.40
2022-09-24T14:59:30.739Z,10.40
2022-09-24T15:02:26.456Z,10.10
2022-09-24T15:05:15.878Z,10.10
2022-09-24T15:08:27.456Z,10.53
2022-09-24T15:11:19.141Z,10.30
2022-09-24T15:14:25.157Z,10.80
2022-09-24T15:17:26.788Z,10.80
2022-09-24T15:20:16.769Z,11.13
2022-09-24T15:23:06.290Z,11.33
2022-09-24T15:25:57.012Z,10.80
2022-09-24T15:28:46.301Z,10.77
2022-09-24T15:31:35.672Z,11.17
2022-09-24T15:34:25.619Z,10.67
2022-09-24T15:37:17.921Z,10.70
2022-09-24T15:40:10.876Z,11.20
2022-09-24T15:43:02.471Z,10.77
2022-09-24T15:45:52.394Z,10.57
2022-09-24T15:48:41.714Z,10.60
2022-09-24T15:51:32.746Z,10.17
2022-09-24T15:54:24.802Z,10.53
2022-09-24T15:57:14.454Z,10.27
2022-09-24T16:00:06.298Z,10.00
2022-09-24T16:02:58.389Z,10.20
2022-09-24T16:05:48.738Z,10.27
2022-09-24T16:08:38.047Z,10.33
2022-09-24T16:11:27.469Z,11.13
2022-09-24T16:14:16.781Z,10.93
2022-09-24T16:17:07.462Z,11.00
2022-09-24T16:19:56.731Z,12.67
2022-09-24T16:22:46.172Z,12.17
2022-09-24T16:25:35.509Z,11.83
2022-09-24T16:28:25.811Z,11.37
2022-09-24T16:31:15.243Z,11.50
2022-09-24T16:34:05.995Z,10.90
2022-09-24T16:36:55.552Z,13.10
2022-09-24T16:39:45.074Z,11.77
2022-09-24T16:42:35.320Z,11.27
2022-09-24T16:45:24.845Z,11.80
2022-09-24T16:48:14.699Z,12.07
2022-09-24T16:51:07.532Z,11.80
2022-09-24T16:53:57.354Z,11.93
2022-09-24T16:56:48.900Z,12.30
2022-09-24T16:59:38.365Z,11.77
2022-09-24T17:02:27.868Z,12.13
2022-09-24T17:05:17.407Z,12.73
2022-09-24T17:08:08.253Z,12.20
2022-09-24T17:11:00.416Z,12.40
2022-09-24T17:13:50.308Z,14.60
2022-09-24T17:16:39.751Z,12.70
2022-09-24T17:19:29.100Z,13.40
2022-09-24T17:22:18.466Z,14.10
2022-09-24T17:25:10.409Z,13.90
2022-09-24T17:27:59.717Z,14.10
2022-09-24T17:30:52.401Z,13.70
2022-09-24T17:33:44.018Z,16.23
2022-09-24T17:36:35.513Z,13.97
2022-09-24T17:39:25.048Z,13.37
2022-09-24T17:42:16.118Z,14.80
2022-09-24T17:45:07.597Z,13.00
2022-09-24T17:48:01.073Z,14.23
2022-09-24T17:50:55.809Z,13.43
2022-09-24T17:53:45.158Z,15.63
2022-09-24T17:56:38.988Z,14.07
2022-09-24T17:59:29.946Z,13.37
2022-09-24T18:02:19.322Z,13.80
2022-09-24T18:05:10.722Z,12.93
2022-09-24T18:08:00.020Z,13.33
2022-09-24T18:10:49.326Z,13.40
2022-09-24T18:13:38.969Z,14.00
2022-09-24T18:16:32.784Z,13.90
2022-09-24T18:19:22.162Z,14.17
2022-09-24T18:22:13.139Z,15.80
2022-09-24T18:25:05.824Z,17.47
2022-09-24T18:28:00.657Z,17.77
2022-09-24T18:30:50.293Z,20.97
2022-09-24T18:33:43.477Z,21.10
2022-09-24T18:36:34.151Z,20.57
2022-09-24T18:39:25.596Z,23.33
2022-09-24T18:42:15.114Z,18.50
2022-09-24T18:45:06.153Z,17.77
2022-09-24T18:47:55.616Z,18.47
2022-09-24T18:50:46.986Z,18.90
2022-09-24T18:53:36.373Z,17.60
2022-09-24T18:56:26.164Z,18.20
2022-09-24T18:59:18.919Z,19.73
2022-09-24T19:02:08.742Z,17.73
2022-09-24T19:04:58.130Z,16.53
2022-09-24T19:07:48.831Z,15.67
2022-09-24T19:10:38.286Z,15.80
2022-09-24T19:13:27.658Z,16.63
2022-09-24T19:16:18.913Z,15.60
2022-09-24T19:19:08.578Z,15.97
2022-09-24T19:21:59.246Z,15.47
2022-09-24T19:24:50.546Z,17.93
2022-09-24T19:27:40.359Z,15.77
2022-09-24T19:30:29.986Z,17.97
2022-09-24T19:33:19.316Z,18.17
2022-09-24T19:36:09.898Z,15.60
2022-09-24T19:39:01.206Z,15.20
2022-09-24T19:41:52.997Z,16.60
2022-09-24T19:44:42.351Z,15.73
2022-09-24T19:47:31.677Z,15.23
2022-09-24T19:50:21.047Z,15.00
2022-09-24T19:53:10.419Z,15.10
2022-09-24T19:56:00.432Z,15.20
2022-09-24T19:58:52.784Z,14.57
2022-09-24T20:01:42.488Z,13.80
2022-09-24T20:04:35.720Z,14.10
2022-09-24T20:07:25.757Z,13.97
2022-09-24T20:10:15.071Z,13.60
2022-09-24T20:13:05.253Z,13.97
2022-09-24T20:16:02.858Z,13.50
2022-09-24T20:18:56.582Z,13.23
2022-09-24T20:21:46.281Z,13.40
2022-09-24T20:24:35.796Z,13.23
2022-09-24T20:27:42.553Z,14.10
2022-09-24T20:30:37.869Z,13.40
2022-09-24T20:33:29.943Z,13.83
2022-09-24T20:36:24.050Z,13.50
2022-09-24T20:39:14.386Z,14.77
2022-09-24T20:42:03.906Z,13.97
2022-09-24T20:44:53.881Z,14.73
2022-09-24T20:47:43.318Z,13.93
2022-09-24T20:50:35.699Z,14.23
2022-09-24T20:53:25.062Z,14.20
2022-09-24T20:56:14.728Z,13.80
2022-09-24T20:59:04.301Z,14.20
2022-09-24T21:01:54.233Z,14.10
2022-09-24T21:04:44.410Z,14.30
2022-09-24T21:07:39.638Z,14.37
2022-09-24T21:10:28.973Z,13.93
2022-09-24T21:13:18.307Z,13.63
2022-09-24T21:16:09.568Z,13.83
2022-09-24T21:19:00.526Z,13.90
2022-09-24T21:21:51.309Z,14.23
2022-09-24T21:24:42.071Z,14.33
2022-09-24T21:27:31.460Z,14.47
2022-09-24T21:30:21.176Z,13.83
2022-09-24T21:33:10.547Z,13.83
2022-09-24T21:36:02.010Z,14.00
2022-09-24T21:38:55.493Z,14.27
2022-09-24T21:41:50.296Z,13.60
2022-09-24T21:44:41.591Z,14.13
2022-09-24T21:47:30.943Z,14.40
2022-09-24T21:50:20.227Z,13.83
2022-09-24T21:53:09.882Z,14.20
2022-09-24T21:55:59.187Z,14.97
2022-09-24T21:58:51.489Z,13.00
2022-09-24T22:01:41.593Z,14.20
2022-09-24T22:04:31.900Z,13.97
2022-09-24T22:07:21.163Z,13.43
2022-09-24T22:10:11.397Z,14.07
2022-09-24T22:13:01.482Z,12.77
2022-09-24T22:15:52.505Z,12.40
2022-09-24T22:18:42.173Z,13.63
2022-09-24T22:21:32.461Z,12.97
2022-09-24T22:24:21.925Z,12.40
2022-09-24T22:27:11.393Z,12.57
2022-09-24T22:30:00.701Z,12.93
2022-09-24T22:32:51.356Z,12.60
2022-09-24T22:35:49.878Z,13.23
2022-09-24T22:38:39.511Z,12.23
2022-09-24T22:41:30.586Z,12.80
2022-09-24T22:44:20.421Z,13.50
2022-09-24T22:47:09.785Z,12.30
2022-09-24T22:50:00.451Z,15.20
2022-09-24T22:52:49.853Z,12.77
2022-09-24T22:55:39.165Z,13.20
2022-09-24T22:58:28.495Z,13.07
2022-09-24T23:01:22.542Z,13.23
2022-09-24T23:04:15.132Z,12.60
2022-09-24T23:07:06.406Z,13.67
2022-09-24T23:09:55.755Z,13.20
2022-09-24T23:12:45.121Z,14.20
2022-09-24T23:15:34.923Z,13.97
2022-09-24T23:18:24.300Z,13.80
2022-09-24T23:21:16.952Z,14.30
2022-09-24T23:24:10.470Z,13.70
2022-09-24T23:26:59.841Z,13.53
2022-09-24T23:29:49.348Z,13.17
2022-09-24T23:32:38.688Z,12.90
2022-09-24T23:35:28.185Z,13.60
2022-09-24T23:38:17.515Z,12.67
2022-09-24T23:41:09.920Z,14.03
2022-09-24T23:43:59.524Z,12.47
2022-09-24T23:46:49.135Z,12.90
2022-09-24T23:49:38.424Z,12.90
2022-09-24T23:52:27.721Z,12.33
2022-09-24T23:55:17.219Z,12.30
2022-09-24T23:58:08.456Z,12.40
